createdAt,value
2019-05-13T06:34:08.155Z,41.29
2019-05-13T06:35:08.016Z,41.29
2019-05-13T06:36:07.951Z,41.19
2019-05-13T06:37:07.881Z,41.19
2019-05-13T06:38:07.801Z,41.19
2019-05-13T06:39:07.716Z,41.09
2019-05-13T06:40:07.772Z,41.19
2019-05-13T06:41:11.556Z,41.19
2019-05-13T06:42:08.428Z,41.19
2019-05-13T06:43:07.336Z,41.19
2019-05-13T06:44:07.235Z,41.29
2019-05-13T06:45:07.138Z,41.29
2019-05-13T06:46:07.085Z,41.09
2019-05-13T06:47:06.923Z,41.19
2019-05-13T06:48:06.813Z,41.07
2019-05-13T06:49:06.704Z,41.07
2019-05-13T06:50:06.585Z,40.97
2019-05-13T06:51:06.464Z,40.97
2019-05-13T06:52:06.376Z,40.97
2019-05-13T06:53:08.425Z,40.97
2019-05-13T06:54:06.116Z,40.97
2019-05-13T06:55:06.000Z,40.97
2019-05-13T06:56:05.885Z,40.97
2019-05-13T06:57:06.364Z,41.07
2019-05-13T06:58:05.676Z,41.07
2019-05-13T06:59:05.552Z,40.97
2019-05-13T07:00:05.456Z,41.05
2019-05-13T07:01:05.331Z,41.15
2019-05-13T07:02:05.188Z,41.05
2019-05-13T07:03:05.076Z,41.25
2019-05-13T07:04:04.972Z,40.85
2019-05-13T07:05:04.838Z,40.85
2019-05-13T07:06:04.718Z,41.25
2019-05-13T07:07:16.191Z,41.46
2019-05-13T07:08:05.478Z,41.85
2019-05-13T07:09:04.386Z,41.85
2019-05-13T07:10:04.261Z,42.54
2019-05-13T07:11:17.781Z,42.33
2019-05-13T07:12:05.034Z,42.83
2019-05-13T07:13:03.919Z,43.33
2019-05-13T07:14:03.773Z,43.04
2019-05-13T07:15:03.652Z,43.71
2019-05-13T07:16:03.549Z,43.51
2019-05-13T07:17:03.401Z,43.51
2019-05-13T07:18:03.282Z,43.62
2019-05-13T07:19:03.155Z,43.71
2019-05-13T07:20:03.038Z,44.09
2019-05-13T07:21:02.913Z,44.20
2019-05-13T07:22:03.297Z,44.39
2019-05-13T07:23:02.664Z,44.49
2019-05-13T07:24:02.597Z,44.20
2019-05-13T07:25:02.761Z,45.89
2019-05-13T07:26:02.315Z,44.70
2019-05-13T07:27:02.400Z,44.49
2019-05-13T07:28:02.291Z,44.17
2019-05-13T07:29:03.647Z,44.07
2019-05-13T07:30:02.336Z,44.47
2019-05-13T07:31:02.265Z,44.17
2019-05-13T07:32:02.098Z,44.27
2019-05-13T07:33:01.714Z,44.37
2019-05-13T07:34:02.246Z,44.27
2019-05-13T07:35:03.967Z,44.37
2019-05-13T07:36:02.877Z,44.07
2019-05-13T07:37:02.042Z,43.98
2019-05-13T07:38:02.192Z,44.07
2019-05-13T07:39:01.369Z,44.25
2019-05-13T07:40:02.528Z,44.45
2019-05-13T07:41:01.483Z,44.45
2019-05-13T07:42:04.737Z,44.35
2019-05-13T07:43:01.753Z,44.35
2019-05-13T07:44:02.313Z,44.45
2019-05-13T07:45:01.450Z,43.55
2019-05-13T07:46:02.155Z,43.85
2019-05-13T07:47:02.906Z,44.45
2019-05-13T07:48:01.367Z,44.35
2019-05-13T07:49:01.935Z,44.35
2019-05-13T07:50:02.197Z,44.15
2019-05-13T07:51:00.760Z,44.15
2019-05-13T07:52:01.330Z,44.35
2019-05-13T07:52:58.850Z,44.43
2019-05-13T07:53:58.712Z,44.43
2019-05-13T07:54:58.582Z,44.03
2019-05-13T07:55:58.433Z,44.13
2019-05-13T07:56:58.301Z,43.83
2019-05-13T07:57:58.181Z,43.73
2019-05-13T07:59:01.499Z,43.83
2019-05-13T07:59:57.892Z,43.73
2019-05-13T08:00:57.797Z,43.63
2019-05-13T08:01:57.636Z,43.63
2019-05-13T08:02:57.494Z,43.33
2019-05-13T08:03:57.373Z,43.43
2019-05-13T08:04:57.240Z,43.73
2019-05-13T08:05:57.124Z,43.63
2019-05-13T08:06:56.956Z,43.73
2019-05-13T08:07:56.824Z,43.73
2019-05-13T08:08:56.673Z,43.63
2019-05-13T08:10:00.109Z,43.63
2019-05-13T08:10:57.388Z,43.73
2019-05-13T08:12:06.345Z,43.83
2019-05-13T08:12:57.136Z,43.83
2019-05-13T08:13:55.977Z,43.73
2019-05-13T08:14:55.847Z,43.63
2019-05-13T08:15:55.715Z,43.63
2019-05-13T08:16:55.599Z,43.61
2019-05-13T08:17:55.436Z,43.71
2019-05-13T08:18:55.286Z,43.81
2019-05-13T08:19:55.160Z,43.81
2019-05-13T08:20:55.008Z,43.71
2019-05-13T08:21:54.950Z,43.71
2019-05-13T08:22:54.749Z,43.71
2019-05-13T08:23:54.633Z,43.81
2019-05-13T08:24:54.622Z,43.91
2019-05-13T08:25:54.331Z,43.71
2019-05-13T08:26:54.218Z,43.71
2019-05-13T08:27:54.070Z,44.01
2019-05-13T08:29:01.310Z,44.11
2019-05-13T08:29:54.777Z,44.11
2019-05-13T08:30:53.643Z,44.01
2019-05-13T08:31:53.492Z,44.21
2019-05-13T08:32:53.356Z,44.11
2019-05-13T08:33:53.221Z,43.81
2019-05-13T08:35:02.026Z,43.91
2019-05-13T08:35:58.560Z,44.21
2019-05-13T08:36:53.791Z,44.11
2019-05-13T08:37:52.672Z,43.89
2019-05-13T08:38:52.513Z,43.89
2019-05-13T08:39:52.401Z,44.11
2019-05-13T08:40:52.235Z,43.99
2019-05-13T08:41:52.083Z,43.89
2019-05-13T08:42:52.146Z,43.89
2019-05-13T08:43:52.554Z,43.79
2019-05-13T08:44:52.486Z,43.69
2019-05-13T08:45:55.111Z,43.69
2019-05-13T08:46:51.915Z,43.49
2019-05-13T08:47:51.317Z,43.29
2019-05-13T08:48:51.838Z,43.09
2019-05-13T08:49:52.060Z,42.49
2019-05-13T08:50:52.157Z,41.91
2019-05-13T08:51:52.667Z,43.21
2019-05-13T08:52:51.219Z,43.21
2019-05-13T08:53:51.682Z,41.71
2019-05-13T08:54:52.461Z,41.11
2019-05-13T08:55:51.723Z,40.72
2019-05-13T08:56:51.990Z,40.52
2019-05-13T08:57:52.237Z,40.81
2019-05-13T08:58:52.040Z,41.31
2019-05-13T08:59:51.587Z,40.94
2019-05-13T09:00:49.351Z,41.24
2019-05-13T09:01:51.754Z,41.24
2019-05-13T09:02:49.062Z,40.14
